x

Fripp Nearshore (frp 2) (41033) Weather Station

7:08am - Tue 22nd Jan 2019 All times are EST. -5 hours from GMT.

  • Wind
    22mph, 29mph gusts
  • Air Temp 43°f
  • Sea Pressure 1034mb
  • Fripp Nearshore (frp 2)
  • Fripp Nearshore (frp 2)

More Historic Weather Station data

Upgrade to MSW Pro to gain access to the past 30 days of data for over 8000 Wavebouys and Weather Stations around the globe.

Join

Comparision Forecast

View Surf forecast
   
Tue 01/22 7:08am 22 29 mph 1034mb 43f
6:08am 22 31 mph 1033.7mb 42f
5:08am 22 29 mph 1033.4mb 41f
4:08am 20 29 mph 1033.3mb 41f
3:08am 20 29 mph 1033.4mb 42f
2:08am 18 29 mph 1033mb 42f
1:08am 18 27 mph 1033mb 42f
12:08am 16 27 mph 1033mb 43f
Mon 01/21 11:08pm 13 22 mph 1032.7mb 43f
10:08pm 16 25 mph 1032.1mb 43f
9:08pm 16 25 mph 1031.9mb 43f
8:08pm 16 22 mph 1031.7mb 43f
7:08pm 13 18 mph 1031.1mb 44f
6:08pm 11 16 mph 1030.5mb 44f
5:08pm 9 16 mph 1030.6mb 45f
4:08pm 9 13 mph 1030.1mb 44f
3:08pm 11 16 mph 1029.8mb 43f
2:08pm 9 13 mph 1029.5mb 42f
1:08pm 11 18 mph 1029.7mb 41f
12:08pm 9 13 mph 1030mb 39f
11:08am 11 18 mph 1029.4mb 39f
10:08am 13 22 mph 1027.9mb 39f
9:08am 13 22 mph 1026.9mb 39f
8:08am 16 22 mph 1025.7mb 38f
7:08am 16 22 mph 1024.4mb 38f
6:08am 18 25 mph 1023.3mb 38f
5:08am 16 22 mph 1022.7mb 38f
4:08am 16 22 mph 1022.4mb 39f
3:08am 16 20 mph 1021.3mb 40f
2:08am 18 25 mph 1020.9mb 40f
1:08am 18 27 mph 1020.4mb 42f
12:08am 20 27 mph 1019.5mb 43f
Sun 01/20 11:08pm 16 22 mph 1018.8mb 44f
10:08pm 18 27 mph 1017.7mb 46f
9:08pm 16 27 mph 1016.7mb 48f
8:08pm 16 27 mph 1014.9mb 49f
7:08pm 18 29 mph 1013.6mb 50f
6:08pm 18 29 mph 1012mb 51f
5:08pm 20 31 mph 1010.2mb 52f
4:08pm 18 29 mph 1009mb 52f
3:08pm 20 31 mph 1008.2mb 50f
2:08pm 18 31 mph 1007.4mb 48f
1:08pm 20 34 mph 1007.5mb 47f
12:08pm 20 34 mph 1007.3mb 47f
11:08am 20 36 mph 1006.7mb 48f
10:08am 18 34 mph 1005mb 51f
9:08am 20 36 mph 1003.4mb 56f
8:08am 18 31 mph 1002.5mb 57f
7:08am 18 27 mph 1002.3mb 57f
6:08am 13 22 mph 1002.2mb 57f
5:08am 13 22 mph 1001.9mb 56f
4:08am 13 18 mph 1002.6mb 56f
3:08am 13 25 mph 1002.7mb 58f
2:08am 20 36 mph 1001.8mb 60f
1:08am 20 31 mph 1002.5mb 62f
12:08am 22 36 mph 1003.1mb 63f
Sat 01/19 11:08pm 20 29 mph 1004.7mb 62f
10:08pm 16 22 mph 1005.7mb 62f
9:08pm 18 25 mph 1006mb 62f
8:08pm 20 27 mph 1006.5mb 62f
7:08pm 18 25 mph 1007.6mb 62f
6:08pm 13 22 mph 1008.6mb 62f
5:08pm 11 16 mph 1009.8mb 60f
4:08pm 9 13 mph 1011mb 60f
3:08pm 4 7 mph 1012.4mb 60f
2:08pm 7 9 mph 1013.3mb 59f
1:08pm 7 9 mph 1014.6mb 59f
12:08pm 7 9 mph 1015.8mb 59f
11:08am 4 7 mph 1016.8mb 60f
10:08am 4 7 mph 1016.8mb 59f
9:08am 7 9 mph 1016.8mb 59f
8:08am 7 9 mph 1016.6mb 59f
7:08am 7 9 mph 1016.8mb 58f
6:08am 7 9 mph 1017mb 57f
5:08am 7 9 mph 1016.7mb 57f
4:08am 7 9 mph 1016.9mb 57f
3:08am 7 9 mph 1017.8mb 57f
2:08am 4 9 mph 1018.5mb 57f
1:08am 7 9 mph 1019mb 57f
12:08am 4 4 mph 1019.5mb 57f
Fri 01/18 11:08pm 7 9 mph 1019.7mb 57f
10:08pm 2 4 mph 1019.6mb 57f
9:08pm  -  2 mph 1019.6mb 56f
8:08pm 2 4 mph 1019.2mb 57f
7:08pm  -  2 mph 1019.1mb 57f
6:08pm 4 9 mph 1018.7mb 57f
5:08pm 4 7 mph 1018.3mb 57f
4:08pm 4 7 mph 1018.3mb 57f
3:08pm 7 9 mph 1018.2mb 57f
2:08pm 2 7 mph 1018.4mb 58f